Terminal Aerodrome Forecast
Issued by NWS Jackson, MS

Home | Current Version | Previous Version | Text Only | Print | Product List | Glossary On
Versions: 1 2 3 4 5 6 7 8 9 10 11 12 13 14 15
000
FTUS44 KJAN 301742
TAFGWO
TAF
KGWO 301742Z 3018/3118 07006KT P6SM FEW050
     FM310000 VRB03KT P6SM SCT050 BKN150
     FM311100 20004KT 6SM BR BKN019 OVC050
     FM311630 22005KT P6SM VCTS BKN025CB BKN050=

USA.gov is the U.S. government's official web portal to all federal, state and local government web resources and services.